Aérodrome :
LOGIN :

S'inscrire | Disclaimer

   EN    FR    IT 

 










Légende :    VFR   VFR Marginal   IFR   IFR Intensif   IFR Très Intensif
Visi : 
Plafond : 
>= 8 km
>= 3000ft
5 à 8 km
1000 à 3000 ft
1500m à 5 km
500 à 1000 ft
800 à 1500m
200 à 500 ft
< 800m
< 200 ft
Symboles :   Orages  Brouillard  Fortes neiges  Fortes précipitations  Vent > 20 kt
SIGMETs :   Divers  Orages  Givrage  Turbulence  Onde Orograph.  Cendres Volcan.







- Altitude de l'aérodrome : 10 ft
- Code IATA : AAL


EKYT - Aalborg

DERNIER METAR :
  • 221220Z AUTO 21009KT 9999NDV FEW010/// BKN014/// BKN100/// 11/10 Q0995

METARs EXPIRÉS :
  • 221202Z AUTO 21009KT 9999NDV FEW009/// BKN013/// BKN150/// 11/11 Q0995
  • 221150Z AUTO 21010KT 9999NDV FEW008/// BKN012/// BKN024/// 11/11 Q0995
  • 221147Z AUTO 20010KT 9999NDV FEW008/// BKN012/// BKN024/// 11/11 Q0995
  • 221120Z AUTO 20007KT 8000NDV FEW007/// SCT013/// BKN017/// BKN020/// 11/10 Q0995
  • 221050Z AUTO 18009KT 6000NDV SCT006/// BKN008/// BKN010/// 10/10 Q0995
  • 221028Z AUTO 17008KT 7000NDV FEW004/// SCT006/// BKN008/// BKN010/// 09/09 Q0995
  • 221013Z AUTO 17008KT 9000NDV BKN004/// BKN006/// 09/09 Q0995
  • 221003Z AUTO 16008KT 9999NDV SCT004/// BKN007/// BKN055/// 09/09 Q0995
  • 220957Z AUTO 16008KT 9999NDV SCT004/// BKN012/// BKN055/// 09/09 Q0995

TAF TAF EKYT
Valide du 22 à 12h jusqu'au 23 à 12h UTC


221134Z 2212/2312 20008KT 9000 SCT005 BKN015
TEMPO 2212/2218 3000 RADZ BR BKN005
TEMPO 2218/2224 20012G25KT 6000 BKN008
BECMG 2306/2309 19018G30KT 7000 -RA
Pas de NOTAMs connus pour ce terrain.



MET'MAP, la Météo Aéronautique d'un coup d'oeil ! - Copyright ORBIFLY Décembre 2007 - Disclaimer

ORBIFLY MET'MAP TEAM :

Programmation & Développement : Alexandra Zaïnal
Conception & Développement : Baudouin d'Aumeries
Co-Programmation & Développement : Marc-Olivier Méhu
Soutien technique & logistique : Manuel Goepfert

Contact : metmap@orbifly.com




SOURCES & CREDITS :

   NOAA